createdAt,value
2023-03-04T00:01:20.706Z,21.92
2023-03-04T00:04:24.837Z,21.75
2023-03-04T00:07:27.799Z,21.69
2023-03-04T00:10:30.561Z,21.74
2023-03-04T00:13:33.382Z,21.73
2023-03-04T00:16:36.247Z,21.71
2023-03-04T00:19:43.797Z,21.64
2023-03-04T00:22:48.857Z,21.58
2023-03-04T00:25:51.616Z,21.54
2023-03-04T00:28:57.367Z,21.48
2023-03-04T00:32:02.470Z,21.39
2023-03-04T00:35:07.342Z,21.33
2023-03-04T00:38:10.452Z,21.31
2023-03-04T00:41:13.220Z,21.28
2023-03-04T00:44:15.998Z,21.23
2023-03-04T00:47:18.820Z,21.20
2023-03-04T00:50:24.377Z,21.15
2023-03-04T00:53:27.145Z,21.17
2023-03-04T00:56:30.215Z,21.15
2023-03-04T00:59:36.185Z,21.11
2023-03-04T01:02:39.220Z,21.08
2023-03-04T01:05:44.757Z,21.05
2023-03-04T01:08:47.508Z,21.05
2023-03-04T01:11:50.272Z,20.97
2023-03-04T01:14:53.118Z,20.96
2023-03-04T01:17:56.225Z,20.96
2023-03-04T01:21:00.363Z,20.92
2023-03-04T01:24:03.164Z,20.85
2023-03-04T01:27:06.010Z,20.80
2023-03-04T01:30:09.169Z,20.80
2023-03-04T01:33:11.961Z,20.78
2023-03-04T01:36:16.116Z,20.72
2023-03-04T01:39:20.696Z,20.71
2023-03-04T01:42:24.674Z,20.68
2023-03-04T01:45:29.940Z,20.63
2023-03-04T01:48:36.635Z,20.64
2023-03-04T01:51:50.014Z,20.59
2023-03-04T01:54:52.783Z,20.57
2023-03-04T01:57:57.437Z,20.53
2023-03-04T02:01:00.565Z,20.52
2023-03-04T02:04:03.704Z,20.50
2023-03-04T02:07:07.913Z,20.46
2023-03-04T02:10:11.503Z,20.43
2023-03-04T02:13:14.918Z,20.40
2023-03-04T02:16:17.733Z,20.38
2023-03-04T02:19:26.306Z,20.33
2023-03-04T02:22:30.478Z,20.31
2023-03-04T02:25:36.940Z,20.30
2023-03-04T02:28:41.095Z,20.27
2023-03-04T02:31:44.880Z,20.31
2023-03-04T02:34:48.464Z,20.31
2023-03-04T02:37:53.316Z,20.24
2023-03-04T02:40:57.464Z,20.26
2023-03-04T02:44:02.576Z,20.23
2023-03-04T02:47:07.550Z,20.22
2023-03-04T02:50:11.106Z,20.21
2023-03-04T02:53:15.416Z,20.19
2023-03-04T02:56:18.202Z,20.18
2023-03-04T02:59:22.843Z,20.17
2023-03-04T03:02:28.449Z,20.18
2023-03-04T03:05:34.429Z,20.26
2023-03-04T03:08:37.204Z,20.31
2023-03-04T03:11:40.161Z,20.39
2023-03-04T03:14:47.186Z,20.52
2023-03-04T03:17:50.226Z,20.65
2023-03-04T03:20:52.977Z,20.68
2023-03-04T03:23:55.774Z,20.74
2023-03-04T03:26:58.553Z,20.75
2023-03-04T03:30:03.234Z,20.83
2023-03-04T03:33:07.177Z,20.86
2023-03-04T03:36:10.209Z,20.92
2023-03-04T03:39:12.938Z,20.91
2023-03-04T03:42:15.778Z,20.97
2023-03-04T03:45:19.949Z,20.97
2023-03-04T03:48:22.878Z,21.05
2023-03-04T03:51:25.684Z,21.03
2023-03-04T03:54:29.967Z,21.10
2023-03-04T03:57:35.764Z,21.08
2023-03-04T04:00:39.896Z,21.12
2023-03-04T04:03:42.644Z,21.15
2023-03-04T04:06:46.547Z,21.15
2023-03-04T04:09:50.568Z,21.16
2023-03-04T04:12:53.368Z,21.17
2023-03-04T04:15:57.560Z,21.17
2023-03-04T04:19:00.366Z,21.12
2023-03-04T04:22:03.172Z,21.21
2023-03-04T04:25:10.765Z,21.15
2023-03-04T04:28:13.633Z,21.22
2023-03-04T04:31:17.860Z,21.23
2023-03-04T04:34:20.654Z,21.21
2023-03-04T04:37:23.416Z,21.26
2023-03-04T04:40:26.193Z,21.27
2023-03-04T04:43:29.020Z,21.31
2023-03-04T04:46:33.184Z,21.26
2023-03-04T04:49:36.000Z,21.32
2023-03-04T04:52:40.390Z,21.26
2023-03-04T04:55:43.120Z,21.30
2023-03-04T04:58:46.154Z,21.36
2023-03-04T05:01:54.689Z,21.32
2023-03-04T05:04:57.417Z,21.28
2023-03-04T05:08:00.214Z,21.25
2023-03-04T05:11:03.428Z,21.24
2023-03-04T05:14:08.076Z,21.19
2023-03-04T05:17:12.203Z,21.15
2023-03-04T05:20:15.082Z,21.09
2023-03-04T05:23:17.920Z,21.07
2023-03-04T05:26:20.853Z,21.01
2023-03-04T05:29:23.621Z,20.99
2023-03-04T05:32:27.858Z,20.96
2023-03-04T05:35:30.657Z,20.93
2023-03-04T05:38:36.630Z,20.88
2023-03-04T05:41:39.375Z,20.79
2023-03-04T05:44:42.177Z,20.87
2023-03-04T05:47:46.327Z,20.87
2023-03-04T05:50:49.032Z,20.83
2023-03-04T05:53:51.872Z,20.79
2023-03-04T05:56:54.857Z,20.80
2023-03-04T05:59:57.621Z,20.70
2023-03-04T06:03:02.945Z,20.70
2023-03-04T06:06:05.996Z,20.70
2023-03-04T06:09:11.068Z,20.68
2023-03-04T06:12:13.940Z,20.67
2023-03-04T06:15:16.647Z,20.62
2023-03-04T06:18:20.760Z,20.59
2023-03-04T06:21:23.500Z,20.65
2023-03-04T06:24:28.394Z,20.55
2023-03-04T06:27:31.244Z,20.56
2023-03-04T06:30:34.008Z,20.58
2023-03-04T06:33:39.489Z,20.52
2023-03-04T06:36:42.296Z,20.55
2023-03-04T06:39:45.280Z,20.54
2023-03-04T06:42:47.997Z,20.59
2023-03-04T06:45:50.829Z,20.45
2023-03-04T06:48:54.941Z,20.45
2023-03-04T06:51:57.708Z,20.42
2023-03-04T06:55:00.489Z,20.42
2023-03-04T06:58:03.318Z,20.42
2023-03-04T07:01:13.152Z,20.42
2023-03-04T07:04:17.446Z,20.40
2023-03-04T07:07:20.230Z,20.37
2023-03-04T07:10:25.562Z,20.35
2023-03-04T07:13:28.387Z,20.35
2023-03-04T07:16:31.265Z,20.36
2023-03-04T07:19:35.412Z,20.40
2023-03-04T07:22:41.100Z,20.31
2023-03-04T07:25:43.817Z,20.29
2023-03-04T07:28:46.620Z,20.30
2023-03-04T07:31:51.576Z,20.27
2023-03-04T07:34:57.415Z,20.28
2023-03-04T07:38:00.228Z,20.29
2023-03-04T07:41:02.983Z,20.25
2023-03-04T07:44:06.725Z,20.20
2023-03-04T07:47:09.504Z,20.20
2023-03-04T07:50:15.417Z,20.19
2023-03-04T07:53:19.738Z,20.20
2023-03-04T07:56:23.813Z,20.20
2023-03-04T07:59:26.627Z,20.20
2023-03-04T08:02:32.168Z,20.23
2023-03-04T08:05:36.382Z,20.15
2023-03-04T08:08:39.294Z,20.17
2023-03-04T08:11:42.177Z,20.16
2023-03-04T08:14:44.995Z,20.20
2023-03-04T08:17:47.762Z,20.18
2023-03-04T08:20:52.505Z,20.19
2023-03-04T08:23:55.771Z,20.16
2023-03-04T08:26:58.711Z,20.17
2023-03-04T08:30:01.405Z,20.18
2023-03-04T08:33:04.666Z,20.17
2023-03-04T08:36:10.673Z,20.20
2023-03-04T08:39:15.017Z,20.16
2023-03-04T08:42:17.741Z,20.16
2023-03-04T08:45:24.265Z,20.13
2023-03-04T08:48:27.057Z,20.12
2023-03-04T08:51:31.177Z,20.11
2023-03-04T08:54:33.969Z,20.09
2023-03-04T08:57:36.749Z,20.07
2023-03-04T09:00:43.057Z,20.18
2023-03-04T09:03:45.830Z,20.31
2023-03-04T09:06:50.040Z,20.42
2023-03-04T09:09:52.816Z,20.51
2023-03-04T09:12:55.629Z,20.60
2023-03-04T09:15:58.797Z,20.76
2023-03-04T09:19:01.642Z,20.83
2023-03-04T09:22:05.815Z,20.86
2023-03-04T09:25:12.866Z,20.89
2023-03-04T09:28:16.572Z,21.03
2023-03-04T09:31:19.437Z,21.09
2023-03-04T09:34:22.243Z,21.16
2023-03-04T09:37:26.448Z,21.21
2023-03-04T09:40:31.549Z,21.32
2023-03-04T09:43:34.657Z,21.28
2023-03-04T09:46:39.662Z,21.40
2023-03-04T09:49:45.855Z,21.29
2023-03-04T09:52:58.335Z,21.27
2023-03-04T09:56:02.420Z,21.39
2023-03-04T09:59:12.743Z,21.41
2023-03-04T10:02:20.351Z,21.39
2023-03-04T10:05:28.596Z,21.43
2023-03-04T10:08:46.554Z,21.46
2023-03-04T10:11:54.280Z,21.51
2023-03-04T10:15:01.801Z,21.48
2023-03-04T10:18:08.245Z,21.49
2023-03-04T10:21:18.616Z,21.49
2023-03-04T10:24:25.258Z,21.54
2023-03-04T10:27:30.193Z,21.56
2023-03-04T10:30:38.100Z,21.57
2023-03-04T10:33:41.584Z,21.60
2023-03-04T10:36:52.921Z,21.62
2023-03-04T10:39:57.088Z,21.64
2023-03-04T10:43:00.943Z,21.64
2023-03-04T10:46:03.798Z,21.65
2023-03-04T10:49:06.642Z,21.67
2023-03-04T10:52:19.265Z,21.64
2023-03-04T10:55:24.859Z,21.73
2023-03-04T10:58:27.692Z,21.73
2023-03-04T11:01:30.453Z,21.69
2023-03-04T11:04:34.764Z,21.77
2023-03-04T11:07:54.026Z,21.70
2023-03-04T11:10:59.691Z,21.66
2023-03-04T11:14:03.975Z,21.62
2023-03-04T11:17:18.215Z,21.55
2023-03-04T11:20:27.652Z,21.54
2023-03-04T11:23:35.276Z,21.45
2023-03-04T11:26:41.488Z,21.47
2023-03-04T11:29:49.762Z,21.42
2023-03-04T11:32:56.416Z,21.37
2023-03-04T11:36:05.070Z,21.41
2023-03-04T11:39:15.338Z,21.37
2023-03-04T11:42:29.661Z,21.30
2023-03-04T11:45:42.531Z,21.33
2023-03-04T11:48:50.759Z,21.28
2023-03-04T11:51:57.146Z,21.23
2023-03-04T11:55:11.782Z,21.22
2023-03-04T11:58:36.604Z,21.13
2023-03-04T12:01:44.387Z,21.10
2023-03-04T12:05:12.758Z,21.11
2023-03-04T12:08:22.889Z,21.05
2023-03-04T12:11:32.247Z,21.04
2023-03-04T12:14:38.653Z,20.98
2023-03-04T12:17:49.902Z,20.98
2023-03-04T12:21:03.828Z,21.07
2023-03-04T12:24:25.001Z,20.94
2023-03-04T12:27:32.635Z,20.87
2023-03-04T12:30:43.667Z,20.89
2023-03-04T12:33:54.376Z,20.88
2023-03-04T12:37:08.149Z,20.90
2023-03-04T12:40:25.175Z,20.84
2023-03-04T12:43:36.610Z,20.85
2023-03-04T12:46:46.516Z,20.80
2023-03-04T12:49:56.776Z,20.82
2023-03-04T12:53:03.337Z,20.76
2023-03-04T12:56:08.681Z,20.75
2023-03-04T12:59:15.636Z,20.72
2023-03-04T13:02:42.287Z,20.70
2023-03-04T13:06:05.300Z,20.72
2023-03-04T13:09:13.862Z,20.68
2023-03-04T13:12:19.731Z,20.66
2023-03-04T13:15:31.754Z,20.64
2023-03-04T13:18:35.337Z,20.64
2023-03-04T13:21:48.125Z,20.62
2023-03-04T13:24:52.480Z,20.53
2023-03-04T13:28:07.453Z,20.59
2023-03-04T13:31:15.646Z,20.69
2023-03-04T13:34:33.331Z,20.74
2023-03-04T13:37:36.648Z,20.92
2023-03-04T13:40:43.318Z,21.04
2023-03-04T13:43:46.716Z,21.03
2023-03-04T13:46:50.921Z,21.04
2023-03-04T13:50:21.579Z,21.07
2023-03-04T13:53:42.272Z,21.17
2023-03-04T13:56:53.264Z,21.15
2023-03-04T14:00:01.189Z,21.22
2023-03-04T14:03:21.023Z,21.24
2023-03-04T14:06:27.204Z,21.26
2023-03-04T14:09:30.872Z,21.38
2023-03-04T14:12:36.963Z,21.34
2023-03-04T14:15:40.436Z,21.32
2023-03-04T14:18:43.205Z,21.54
2023-03-04T14:21:46.393Z,21.61
2023-03-04T14:24:57.898Z,21.51
2023-03-04T14:28:16.488Z,21.62
2023-03-04T14:31:20.624Z,21.59
2023-03-04T14:34:26.683Z,21.57
2023-03-04T14:37:34.333Z,21.74
2023-03-04T14:40:40.133Z,21.59
2023-03-04T14:43:50.362Z,21.59
2023-03-04T14:47:06.874Z,21.57
2023-03-04T14:50:14.561Z,21.52
2023-03-04T14:53:19.184Z,21.56
2023-03-04T14:56:28.065Z,21.63
2023-03-04T14:59:41.492Z,21.57
2023-03-04T15:02:45.249Z,21.56
2023-03-04T15:05:50.037Z,21.55
2023-03-04T15:09:01.004Z,21.56
2023-03-04T15:12:04.848Z,21.62
2023-03-04T15:15:22.501Z,21.62
2023-03-04T15:18:27.440Z,21.65
2023-03-04T15:21:37.105Z,21.69
2023-03-04T15:24:42.370Z,21.71
2023-03-04T15:27:45.637Z,21.69
2023-03-04T15:30:48.519Z,21.72
2023-03-04T15:33:52.742Z,21.73
2023-03-04T15:37:01.882Z,21.72
2023-03-04T15:40:08.407Z,21.74
2023-03-04T15:43:14.663Z,21.70
2023-03-04T15:46:19.523Z,21.71
2023-03-04T15:49:23.781Z,21.73
2023-03-04T15:52:26.612Z,21.69
2023-03-04T15:55:33.199Z,21.70
2023-03-04T15:58:36.085Z,21.78
2023-03-04T16:01:41.865Z,21.85
2023-03-04T16:04:46.092Z,21.82
2023-03-04T16:07:50.140Z,21.87
2023-03-04T16:10:53.416Z,21.82
2023-03-04T16:13:58.667Z,21.83
2023-03-04T16:17:01.713Z,21.92
2023-03-04T16:20:06.346Z,21.84
2023-03-04T16:23:12.197Z,21.78
2023-03-04T16:26:23.289Z,21.80
2023-03-04T16:29:26.036Z,21.75
2023-03-04T16:32:29.187Z,21.66
2023-03-04T16:35:38.209Z,21.60
2023-03-04T16:38:41.059Z,21.55
2023-03-04T16:41:43.845Z,21.50
2023-03-04T16:44:46.893Z,21.48
2023-03-04T16:47:49.925Z,21.42
2023-03-04T16:50:54.169Z,21.36
2023-03-04T16:54:00.326Z,21.44
2023-03-04T16:57:03.247Z,21.38
2023-03-04T17:00:08.236Z,20.25
2023-03-04T17:03:13.432Z,19.95
2023-03-04T17:06:21.909Z,19.90
2023-03-04T17:09:24.713Z,20.44
2023-03-04T17:12:27.476Z,20.84
2023-03-04T17:15:30.261Z,20.92
2023-03-04T17:18:33.104Z,20.95
2023-03-04T17:21:37.338Z,20.91
2023-03-04T17:24:40.165Z,20.90
2023-03-04T17:27:43.475Z,20.92
2023-03-04T17:30:46.243Z,20.94
2023-03-04T17:33:49.375Z,20.86
2023-03-04T17:36:53.720Z,20.85
2023-03-04T17:39:56.628Z,20.84
2023-03-04T17:42:59.474Z,20.84
2023-03-04T17:46:06.279Z,20.87
2023-03-04T17:49:09.111Z,20.82
2023-03-04T17:52:13.290Z,20.75
2023-03-04T17:55:16.177Z,20.73
2023-03-04T17:58:20.372Z,20.65
2023-03-04T18:01:23.243Z,20.61
2023-03-04T18:04:26.026Z,20.58
2023-03-04T18:07:30.434Z,20.58
2023-03-04T18:10:33.401Z,20.59
2023-03-04T18:13:40.563Z,20.56
2023-03-04T18:16:43.341Z,20.52
2023-03-04T18:19:46.076Z,20.50
2023-03-04T18:22:53.013Z,20.54
2023-03-04T18:25:56.213Z,20.61
2023-03-04T18:28:58.992Z,20.63
2023-03-04T18:32:01.942Z,20.68
2023-03-04T18:35:05.011Z,20.79
2023-03-04T18:38:09.180Z,20.90
2023-03-04T18:41:13.066Z,20.95
2023-03-04T18:44:15.741Z,21.05
2023-03-04T18:47:18.797Z,21.12
2023-03-04T18:50:22.055Z,21.21
2023-03-04T18:53:27.505Z,21.26
2023-03-04T18:56:39.090Z,21.31
2023-03-04T18:59:44.338Z,21.32
2023-03-04T19:02:48.703Z,21.32
2023-03-04T19:05:51.458Z,21.35
2023-03-04T19:08:57.542Z,21.28
2023-03-04T19:12:01.667Z,21.24
2023-03-04T19:15:05.825Z,21.18
2023-03-04T19:18:09.092Z,21.15
2023-03-04T19:21:11.863Z,21.11
2023-03-04T19:24:15.986Z,21.07
2023-03-04T19:27:20.582Z,21.02
2023-03-04T19:30:23.450Z,20.99
2023-03-04T19:33:27.058Z,20.96
2023-03-04T19:36:29.906Z,20.91
2023-03-04T19:39:34.042Z,20.87
2023-03-04T19:42:37.048Z,20.84
2023-03-04T19:45:39.931Z,20.78
2023-03-04T19:48:45.123Z,20.77
2023-03-04T19:51:47.988Z,20.74
2023-03-04T19:54:52.157Z,20.72
2023-03-04T19:57:54.898Z,20.71
2023-03-04T20:00:58.697Z,20.72
2023-03-04T20:04:05.393Z,20.69
2023-03-04T20:07:08.192Z,20.68
2023-03-04T20:10:18.922Z,20.65
2023-03-04T20:13:21.740Z,20.63
2023-03-04T20:16:24.517Z,20.60
2023-03-04T20:19:28.282Z,20.55
2023-03-04T20:22:31.505Z,20.55
2023-03-04T20:25:35.677Z,20.53
2023-03-04T20:28:38.791Z,20.50
2023-03-04T20:31:41.684Z,20.47
2023-03-04T20:34:44.405Z,20.54
2023-03-04T20:37:47.236Z,20.61
2023-03-04T20:40:51.352Z,20.71
2023-03-04T20:43:56.480Z,20.84
2023-03-04T20:46:59.276Z,20.86
2023-03-04T20:50:02.081Z,20.89
2023-03-04T20:53:04.865Z,21.01
2023-03-04T20:56:09.138Z,21.02
2023-03-04T20:59:12.920Z,21.24
2023-03-04T21:02:17.093Z,21.10
2023-03-04T21:05:20.092Z,21.12
2023-03-04T21:08:22.883Z,21.41
2023-03-04T21:11:27.100Z,21.32
2023-03-04T21:14:30.462Z,21.28
2023-03-04T21:17:33.269Z,21.25
2023-03-04T21:20:38.221Z,21.26
2023-03-04T21:23:41.074Z,21.34
2023-03-04T21:26:48.613Z,21.46
2023-03-04T21:29:52.549Z,21.45
2023-03-04T21:32:55.516Z,21.46
2023-03-04T21:35:58.650Z,21.40
2023-03-04T21:39:01.451Z,21.37
2023-03-04T21:42:05.858Z,21.45
2023-03-04T21:45:09.068Z,21.39
2023-03-04T21:48:11.911Z,21.38
2023-03-04T21:51:16.077Z,21.39
2023-03-04T21:54:19.265Z,21.40
2023-03-04T21:57:23.397Z,21.37
2023-03-04T22:00:26.311Z,21.43
2023-03-04T22:03:29.132Z,21.61
2023-03-04T22:06:33.695Z,21.52
2023-03-04T22:09:36.478Z,21.54
2023-03-04T22:12:40.592Z,21.56
2023-03-04T22:15:46.576Z,21.54
2023-03-04T22:18:51.960Z,21.54
2023-03-04T22:21:54.891Z,21.51
2023-03-04T22:24:59.612Z,21.52
2023-03-04T22:28:04.141Z,21.54
2023-03-04T22:31:14.032Z,21.59
2023-03-04T22:34:16.927Z,21.58
2023-03-04T22:37:21.540Z,21.60
2023-03-04T22:40:24.758Z,21.57
2023-03-04T22:43:28.954Z,21.62
2023-03-04T22:46:33.058Z,21.60
2023-03-04T22:49:35.864Z,21.57
2023-03-04T22:52:40.604Z,21.53
2023-03-04T22:55:43.348Z,21.59
2023-03-04T22:58:47.806Z,21.56
2023-03-04T23:01:50.598Z,21.56
2023-03-04T23:04:53.456Z,21.62
2023-03-04T23:07:56.209Z,21.63
2023-03-04T23:11:00.800Z,21.62
2023-03-04T23:14:07.165Z,21.65
2023-03-04T23:17:10.225Z,21.61
2023-03-04T23:20:14.145Z,21.67
2023-03-04T23:23:17.019Z,21.69
2023-03-04T23:26:21.292Z,21.67
2023-03-04T23:29:25.363Z,21.68
2023-03-04T23:32:29.956Z,21.70
2023-03-04T23:35:32.773Z,21.67
2023-03-04T23:38:35.558Z,21.69
2023-03-04T23:41:38.954Z,21.69
2023-03-04T23:44:43.370Z,21.70
2023-03-04T23:47:50.734Z,21.71
2023-03-04T23:50:54.051Z,21.72
2023-03-04T23:53:57.584Z,21.68
2023-03-04T23:57:00.741Z,21.72
